Oatman, Arizona
Current Conditions -  °F | °C
As of 12:15 AM on Saturday 20 Dec 2014 (Local Time) from KIFP Reporting Station
Clear Clear  
Wind Chill: 50°   Ceiling: Unl
Heat Index: 50°   Visibility: 10mi
Dew Point: 39°   Wind: 5mph
Humidity: 66%   Direction: 40°NE
Pressure: 30.19"   Gusts: NA
Location:  35.03°N, 114.38°W
Report Text: KIFP 200715Z AUTO 04004KT 10SM CLR 10/04 A3019 RMK AO2
Loading
Personal Weather Stations






























Interactive Weather Map New forecast layout! Learn more

10-Day Weather Forecast

Advertisements
Track Severe Weather on mobile